Time;durP1;ratioP1;P1;durP2;ratioP2;P2;SDS_P1;SDS_P2;PMS_P1;PMS_P2;Temp;Humidity;BMP_temperature;BMP_pressure;BME280_temperature;BME280_humidity;BME280_pressure;Samples;Min_cycle;Max_cycle;Signal;HPM_P1;HPM_P2
2023/01/31 00:01:09;;;;;;;11.40;8.57;;;2.40;99.90;;;;;;4991116;28;20271;-48
2023/01/31 00:03:36;;;;;;;13.13;8.90;;;2.30;99.90;;;;;;4993226;28;20229;-48
2023/01/31 00:06:15;;;;;;;12.30;8.33;;;2.30;99.90;;;;;;4994635;28;20198;-49
2023/01/31 00:08:42;;;;;;;12.43;9.40;;;2.40;99.90;;;;;;4992217;28;20259;-49
2023/01/31 00:11:10;;;;;;;9.50;7.57;;;2.30;99.90;;;;;;4993806;28;20201;-49
2023/01/31 00:13:39;;;;;;;13.10;8.03;;;2.30;99.90;;;;;;4993280;28;20646;-49
2023/01/31 00:16:06;;;;;;;12.17;8.37;;;2.30;99.90;;;;;;4985658;28;20730;-49
2023/01/31 00:18:34;;;;;;;14.87;10.03;;;2.40;99.90;;;;;;4993575;28;20272;-48
2023/01/31 00:21:06;;;;;;;12.73;8.37;;;2.40;99.90;;;;;;4988505;28;20207;-48
2023/01/31 00:23:33;;;;;;;12.77;8.47;;;2.30;99.90;;;;;;4991284;28;20231;-49
2023/01/31 00:26:08;;;;;;;10.73;8.43;;;2.30;99.90;;;;;;4991344;28;20628;-49
2023/01/31 00:28:35;;;;;;;9.63;7.60;;;2.50;99.90;;;;;;4991593;28;20739;-49
2023/01/31 00:31:03;;;;;;;13.27;8.97;;;2.50;99.90;;;;;;4988939;28;20258;-49
2023/01/31 00:33:30;;;;;;;12.30;8.37;;;2.50;99.90;;;;;;4989668;28;20222;-48
2023/01/31 00:35:57;;;;;;;13.43;9.60;;;2.50;99.90;;;;;;4993803;28;20205;-49
2023/01/31 00:38:24;;;;;;;13.17;9.67;;;2.60;99.90;;;;;;4993692;28;20205;-48
2023/01/31 00:40:52;;;;;;;10.50;8.67;;;2.50;99.90;;;;;;4991823;28;20209;-49
2023/01/31 00:43:20;;;;;;;12.83;8.53;;;2.40;99.90;;;;;;4991445;28;20201;-49
2023/01/31 00:45:47;;;;;;;9.53;7.17;;;2.40;99.90;;;;;;4993852;28;20205;-49
2023/01/31 00:48:15;;;;;;;10.23;7.70;;;2.30;99.90;;;;;;4993742;28;20209;-48
2023/01/31 00:50:42;;;;;;;13.70;8.97;;;2.30;99.90;;;;;;4993744;28;20205;-49
2023/01/31 00:53:09;;;;;;;11.23;9.27;;;2.30;99.90;;;;;;4993767;28;20634;-49
2023/01/31 00:55:36;;;;;;;10.83;7.67;;;2.30;99.90;;;;;;4990363;28;20205;-49
2023/01/31 00:58:04;;;;;;;12.07;7.87;;;2.30;99.90;;;;;;4992388;28;20659;-48
2023/01/31 01:00:31;;;;;;;10.73;7.97;;;2.30;99.90;;;;;;4991191;28;20220;-49
2023/01/31 01:02:58;;;;;;;13.40;8.70;;;2.30;99.90;;;;;;4985363;28;20259;-49
2023/01/31 01:05:26;;;;;;;10.30;8.57;;;2.30;99.90;;;;;;4992450;28;20609;-49
2023/01/31 01:07:53;;;;;;;10.83;8.67;;;2.20;99.90;;;;;;4991080;28;20201;-48
2023/01/31 01:10:20;;;;;;;10.20;7.57;;;2.30;99.90;;;;;;4993372;28;20194;-49
2023/01/31 01:12:47;;;;;;;11.33;8.20;;;2.20;99.90;;;;;;4993664;28;20275;-48
2023/01/31 01:15:14;;;;;;;11.40;8.33;;;2.20;99.90;;;;;;4992096;28;20256;-49
2023/01/31 01:17:41;;;;;;;13.40;8.80;;;2.30;99.90;;;;;;4993507;28;20197;-49
2023/01/31 01:20:10;;;;;;;10.83;8.73;;;2.40;99.90;;;;;;4987180;28;20216;-49
2023/01/31 01:22:38;;;;;;;10.53;7.53;;;2.30;99.90;;;;;;4992737;28;20279;-49
2023/01/31 01:25:06;;;;;;;12.17;9.10;;;2.30;99.90;;;;;;4991766;28;20279;-49
2023/01/31 01:27:33;;;;;;;12.43;8.77;;;2.20;99.90;;;;;;4992986;28;20201;-49
2023/01/31 01:30:00;;;;;;;12.27;8.27;;;2.20;99.90;;;;;;4991982;28;20197;-48
2023/01/31 01:32:28;;;;;;;12.30;8.83;;;2.10;99.90;;;;;;4993035;28;20202;-49
2023/01/31 01:34:55;;;;;;;13.33;8.73;;;2.10;99.90;;;;;;4992075;28;20225;-49
2023/01/31 01:37:23;;;;;;;12.47;8.30;;;2.10;99.90;;;;;;4985113;28;20197;-49
2023/01/31 01:39:52;;;;;;;9.73;7.67;;;2.10;99.90;;;;;;4989257;28;20221;-48
2023/01/31 01:42:24;;;;;;;12.63;8.47;;;2.10;99.90;;;;;;4987810;28;20197;-48
2023/01/31 01:44:55;;;;;;;10.17;8.67;;;2.10;99.90;;;;;;4991308;28;20262;-49
2023/01/31 01:47:39;;;;;;;12.73;8.50;;;2.10;99.90;;;;;;4989012;28;20202;-49
2023/01/31 01:50:13;;;;;;;8.17;6.87;;;2.10;99.90;;;;;;4991073;28;20197;-49
2023/01/31 01:52:48;;;;;;;11.00;8.03;;;2.00;99.90;;;;;;4991816;28;20622;-49
2023/01/31 01:55:22;;;;;;;10.63;8.13;;;2.00;99.90;;;;;;4990687;28;20282;-49
2023/01/31 01:57:52;;;;;;;11.57;7.80;;;2.00;99.90;;;;;;4990184;28;20280;-49
2023/01/31 02:00:21;;;;;;;12.77;8.13;;;1.90;99.90;;;;;;4992435;28;20275;-48
2023/01/31 02:02:52;;;;;;;9.57;7.57;;;1.90;99.90;;;;;;4989243;28;20201;-48
2023/01/31 02:05:24;;;;;;;9.97;7.70;;;1.90;99.90;;;;;;4990974;28;20225;-48
2023/01/31 02:07:51;;;;;;;9.40;7.53;;;1.80;99.90;;;;;;4991800;28;20218;-48
2023/01/31 02:10:24;;;;;;;10.27;8.43;;;1.80;99.90;;;;;;4991522;28;20251;-49
2023/01/31 02:12:51;;;;;;;8.73;7.63;;;1.70;99.90;;;;;;4989415;28;20209;-48
2023/01/31 02:15:18;;;;;;;12.47;8.50;;;1.70;99.90;;;;;;4992496;28;20275;-48
2023/01/31 02:17:45;;;;;;;11.60;8.80;;;1.60;99.90;;;;;;4992433;28;20200;-49
2023/01/31 02:20:39;;;;;;;12.20;8.13;;;1.60;99.90;;;;;;4986663;28;20224;-49
2023/01/31 02:23:34;;;;;;;10.77;7.77;;;1.60;99.90;;;;;;4990193;28;20642;-49
2023/01/31 02:26:42;;;;;;;11.63;8.00;;;1.50;99.90;;;;;;4982671;28;21024;-49
2023/01/31 02:29:48;;;;;;;10.00;7.83;;;1.50;99.90;;;;;;4972445;28;20646;-49
2023/01/31 02:32:56;;;;;;;11.35;9.25;;;1.50;99.90;;;;;;4971318;28;20446;-48
2023/01/31 02:35:38;;;;;;;13.83;9.67;;;1.60;99.90;;;;;;4983371;28;20785;-49
2023/01/31 02:38:19;;;;;;;12.50;9.47;;;1.60;99.90;;;;;;4989846;28;20746;-49
2023/01/31 02:40:52;;;;;;;11.00;7.70;;;1.60;99.90;;;;;;4992094;28;20776;-49
2023/01/31 02:43:25;;;;;;;9.90;7.20;;;1.60;99.90;;;;;;4992371;28;20209;-49
2023/01/31 02:45:58;;;;;;;13.00;8.47;;;1.50;99.90;;;;;;4983558;28;20683;-49
2023/01/31 02:48:36;;;;;;;8.70;7.83;;;1.40;99.90;;;;;;4990469;28;20733;-48
2023/01/31 02:51:09;;;;;;;8.73;7.77;;;1.40;99.90;;;;;;4991859;28;20206;-48
2023/01/31 02:53:42;;;;;;;9.80;7.13;;;1.30;99.90;;;;;;4991164;28;20279;-49
2023/01/31 02:56:22;;;;;;;9.80;7.57;;;1.20;99.90;;;;;;4991557;28;20207;-49
2023/01/31 02:58:54;;;;;;;12.83;8.37;;;1.20;99.90;;;;;;4992155;28;20263;-49
2023/01/31 03:01:26;;;;;;;10.40;7.43;;;1.10;99.90;;;;;;4990121;28;20221;-48
2023/01/31 03:03:57;;;;;;;14.10;9.17;;;1.00;99.90;;;;;;4992767;28;20227;-49
2023/01/31 03:07:04;;;;;;;11.50;8.07;;;0.90;99.90;;;;;;4993819;28;20641;-49
2023/01/31 03:09:39;;;;;;;8.47;7.23;;;0.90;99.90;;;;;;4991117;28;20256;-49
2023/01/31 03:12:23;;;;;;;10.07;7.53;;;0.90;99.90;;;;;;4987804;28;21931;-48
2023/01/31 03:15:03;;;;;;;9.53;7.67;;;0.80;99.90;;;;;;4987391;28;20227;-49
2023/01/31 03:17:39;;;;;;;12.57;8.90;;;0.80;99.90;;;;;;4995854;28;20301;-49
2023/01/31 03:20:10;;;;;;;9.87;7.70;;;0.80;99.90;;;;;;4993923;28;20709;-49
2023/01/31 03:22:42;;;;;;;11.40;8.10;;;0.80;99.90;;;;;;4995538;28;20689;-49
2023/01/31 03:25:13;;;;;;;10.33;7.30;;;0.80;99.90;;;;;;4992194;28;20227;-49
2023/01/31 03:27:45;;;;;;;10.00;7.83;;;0.80;99.90;;;;;;4994868;28;20682;-48
2023/01/31 03:30:18;;;;;;;11.20;8.30;;;0.70;99.90;;;;;;4993263;28;20201;-48
2023/01/31 03:32:50;;;;;;;11.23;8.43;;;0.70;99.90;;;;;;4995236;28;20260;-49
2023/01/31 03:35:18;;;;;;;11.23;9.30;;;0.70;99.90;;;;;;4986053;28;20771;-48
2023/01/31 03:37:52;;;;;;;10.17;8.13;;;0.70;99.90;;;;;;4990631;28;20212;-49
2023/01/31 03:40:25;;;;;;;11.17;8.00;;;0.70;99.90;;;;;;4994736;28;21032;-49
2023/01/31 03:42:57;;;;;;;12.57;9.03;;;0.70;99.90;;;;;;4993828;28;20762;-49
2023/01/31 03:45:30;;;;;;;10.80;8.50;;;0.70;99.90;;;;;;5052375;23;20725;-48
2023/01/31 03:47:59;;;;;;;11.43;8.03;;;0.80;99.90;;;;;;5025655;28;20203;-48
2023/01/31 03:50:30;;;;;;;14.00;8.50;;;0.80;99.90;;;;;;5031558;28;20611;-49
2023/01/31 03:53:02;;;;;;;10.57;7.93;;;0.70;99.90;;;;;;5032916;28;20201;-48
2023/01/31 03:55:35;;;;;;;12.93;8.97;;;0.80;99.90;;;;;;5033558;28;20273;-50
2023/01/31 03:58:04;;;;;;;13.37;9.67;;;0.70;99.90;;;;;;5026935;28;20204;-49
2023/01/31 04:00:36;;;;;;;11.97;8.53;;;0.70;99.90;;;;;;5025276;28;20619;-48
2023/01/31 04:03:10;;;;;;;13.37;9.53;;;0.70;99.90;;;;;;5027595;28;20195;-48
2023/01/31 04:05:37;;;;;;;10.40;8.37;;;0.70;99.90;;;;;;5033238;28;20278;-49
2023/01/31 04:08:06;;;;;;;10.50;7.97;;;0.70;99.90;;;;;;5033154;28;20203;-47
2023/01/31 04:10:33;;;;;;;13.10;9.27;;;0.70;99.90;;;;;;5031230;28;20645;-49
2023/01/31 04:13:00;;;;;;;11.97;8.50;;;0.80;99.90;;;;;;5033133;28;20265;-49
2023/01/31 04:15:27;;;;;;;14.10;9.20;;;0.80;99.90;;;;;;5026129;28;20352;-49
2023/01/31 04:17:54;;;;;;;14.90;9.43;;;0.80;99.90;;;;;;5032960;28;20835;-50
2023/01/31 04:20:21;;;;;;;13.80;9.07;;;0.90;99.90;;;;;;5026036;28;20215;-49
2023/01/31 04:22:48;;;;;;;13.37;9.00;;;0.90;99.90;;;;;;5029234;28;20249;-49
2023/01/31 04:25:16;;;;;;;12.93;8.73;;;0.90;99.90;;;;;;5029806;28;20219;-48
2023/01/31 04:27:43;;;;;;;12.23;8.63;;;0.90;99.90;;;;;;5024451;28;20205;-48
2023/01/31 04:30:12;;;;;;;14.37;8.20;;;0.90;99.90;;;;;;5026834;28;20691;-50
2023/01/31 04:32:38;;;;;;;8.93;7.07;;;0.90;99.90;;;;;;5026885;28;20309;-48
2023/01/31 04:35:06;;;;;;;14.53;8.53;;;0.90;99.90;;;;;;5027597;28;20282;-48
2023/01/31 04:37:33;;;;;;;10.40;8.07;;;0.90;99.90;;;;;;5032730;28;20206;-49
2023/01/31 04:40:00;;;;;;;8.27;6.67;;;0.90;99.90;;;;;;5032443;28;20219;-49
2023/01/31 04:42:28;;;;;;;10.90;8.07;;;0.90;99.90;;;;;;5030423;28;20293;-49
2023/01/31 04:44:55;;;;;;;10.60;7.23;;;1.00;99.90;;;;;;5032636;28;20302;-48
2023/01/31 04:47:23;;;;;;;7.77;5.93;;;1.00;99.90;;;;;;5025328;28;20207;-49
2023/01/31 04:49:50;;;;;;;9.80;7.07;;;1.00;99.90;;;;;;5019384;28;20331;-49
2023/01/31 04:52:17;;;;;;;12.83;8.53;;;1.00;99.90;;;;;;5025553;28;20782;-49
2023/01/31 04:54:44;;;;;;;9.40;7.30;;;1.00;99.90;;;;;;5029141;28;20228;-49
2023/01/31 04:57:11;;;;;;;12.27;7.63;;;1.00;99.90;;;;;;5032384;28;20583;-49
2023/01/31 04:59:39;;;;;;;9.17;7.03;;;1.00;99.90;;;;;;5022762;28;20254;-49
2023/01/31 05:02:06;;;;;;;8.27;6.97;;;1.00;99.90;;;;;;5031987;28;20215;-49
2023/01/31 05:04:33;;;;;;;9.87;7.00;;;1.00;99.90;;;;;;5027815;28;20228;-52
2023/01/31 05:07:00;;;;;;;12.47;8.13;;;1.00;99.90;;;;;;5024342;28;20575;-49
2023/01/31 05:09:27;;;;;;;12.30;8.03;;;1.00;99.90;;;;;;5032024;28;20199;-49
2023/01/31 05:11:54;;;;;;;12.93;8.10;;;1.10;99.90;;;;;;5018145;28;20205;-49
2023/01/31 05:14:21;;;;;;;12.83;8.60;;;1.10;99.90;;;;;;5012412;28;20236;-49
2023/01/31 05:16:49;;;;;;;13.73;9.97;;;1.10;99.90;;;;;;5026337;28;20200;-50
2023/01/31 05:19:16;;;;;;;11.07;7.93;;;1.10;99.90;;;;;;5031852;28;20249;-48
2023/01/31 05:24:29;;;;;;;13.00;9.90;;;1.10;99.90;;;;;;5027840;28;20219;-48
2023/01/31 05:26:58;;;;;;;14.27;9.67;;;1.10;99.90;;;;;;5031877;28;20258;-50
2023/01/31 05:29:25;;;;;;;17.67;9.33;;;1.10;99.90;;;;;;5013132;28;20232;-49
2023/01/31 05:31:55;;;;;;;13.63;10.07;;;1.20;99.90;;;;;;5030723;28;20203;-49
2023/01/31 05:34:24;;;;;;;13.70;10.13;;;1.20;99.90;;;;;;5031978;28;20223;-49
2023/01/31 05:36:51;;;;;;;13.63;9.77;;;1.20;99.90;;;;;;5031942;28;20207;-49
2023/01/31 05:39:18;;;;;;;14.93;10.93;;;1.20;99.90;;;;;;5022090;28;20203;-49
2023/01/31 05:41:45;;;;;;;23.57;16.90;;;1.20;99.90;;;;;;5028728;28;20756;-48
2023/01/31 05:44:13;;;;;;;19.00;13.23;;;1.30;99.90;;;;;;5024964;28;20786;-50
2023/01/31 05:46:40;;;;;;;17.63;12.40;;;1.20;99.90;;;;;;5029704;28;20195;-50
2023/01/31 05:49:09;;;;;;;28.47;15.90;;;1.20;99.90;;;;;;5030297;28;20196;-49
2023/01/31 05:51:36;;;;;;;20.83;13.90;;;1.20;99.90;;;;;;5032704;28;20199;-49
2023/01/31 05:54:03;;;;;;;19.03;13.77;;;1.30;99.90;;;;;;5030470;28;20248;-49
2023/01/31 05:56:30;;;;;;;25.57;16.97;;;1.20;99.90;;;;;;5032897;28;20265;-50
2023/01/31 05:58:57;;;;;;;26.40;16.73;;;1.20;99.90;;;;;;5016052;28;20620;-49
2023/01/31 06:01:27;;;;;;;26.67;16.77;;;1.20;99.90;;;;;;5029058;28;20225;-49
2023/01/31 06:03:54;;;;;;;25.07;15.00;;;1.20;99.90;;;;;;5032128;28;20215;-49
2023/01/31 06:06:22;;;;;;;21.10;12.53;;;1.20;99.90;;;;;;5031400;28;20195;-49
2023/01/31 06:08:49;;;;;;;23.40;13.73;;;1.20;99.90;;;;;;5025218;28;20205;-49
2023/01/31 06:11:17;;;;;;;24.27;16.00;;;1.20;99.90;;;;;;5027698;28;20195;-50
2023/01/31 06:13:44;;;;;;;28.03;17.50;;;1.10;99.90;;;;;;5020755;28;20200;-49
2023/01/31 06:16:12;;;;;;;28.40;17.93;;;1.10;99.90;;;;;;5031035;28;20200;-48
2023/01/31 06:18:39;;;;;;;25.10;16.60;;;1.20;99.90;;;;;;5027113;28;20218;-48
2023/01/31 06:21:06;;;;;;;26.30;16.13;;;1.10;99.90;;;;;;5016363;28;20693;-49
2023/01/31 06:23:35;;;;;;;22.37;14.93;;;1.10;99.90;;;;;;5029200;28;20227;-48
2023/01/31 06:26:02;;;;;;;23.53;14.50;;;1.10;99.90;;;;;;5016974;28;20199;-48
2023/01/31 06:28:29;;;;;;;20.33;14.90;;;1.20;99.90;;;;;;5028186;28;20205;-48
2023/01/31 06:30:56;;;;;;;21.50;14.50;;;1.20;99.90;;;;;;5027457;28;20201;-49
2023/01/31 06:33:23;;;;;;;24.17;15.03;;;1.20;99.90;;;;;;5030830;28;20208;-49
2023/01/31 06:35:50;;;;;;;23.10;14.60;;;1.10;99.90;;;;;;5025160;28;20220;-48
2023/01/31 06:38:17;;;;;;;27.87;15.67;;;1.10;99.90;;;;;;5022658;28;20669;-47
2023/01/31 06:40:45;;;;;;;24.33;15.27;;;1.10;99.90;;;;;;5044507;28;20218;-49
2023/01/31 06:43:12;;;;;;;21.23;14.57;;;1.10;99.90;;;;;;5046962;28;20411;-49
2023/01/31 06:45:39;;;;;;;20.80;15.40;;;1.20;99.90;;;;;;5023544;28;20736;-47
2023/01/31 06:48:06;;;;;;;23.23;14.37;;;1.20;99.90;;;;;;5034701;28;20578;-49
2023/01/31 06:50:33;;;;;;;22.80;15.00;;;1.20;99.90;;;;;;5032945;28;20204;-48
2023/01/31 06:53:00;;;;;;;20.17;14.23;;;1.20;99.90;;;;;;5032074;28;20198;-49
2023/01/31 06:55:27;;;;;;;22.53;14.40;;;1.20;99.90;;;;;;5029546;28;20227;-48
2023/01/31 06:57:55;;;;;;;21.03;15.17;;;1.20;99.90;;;;;;5034567;28;20195;-48
2023/01/31 07:00:24;;;;;;;23.27;14.37;;;1.20;99.90;;;;;;5032127;28;21436;-49
2023/01/31 07:02:52;;;;;;;18.37;13.13;;;1.30;99.90;;;;;;5034423;28;20239;-49
2023/01/31 07:05:20;;;;;;;17.80;12.63;;;1.30;99.90;;;;;;5020246;28;20266;-50
2023/01/31 07:07:48;;;;;;;18.77;13.43;;;1.30;99.90;;;;;;5023915;28;20207;-48
2023/01/31 07:10:16;;;;;;;17.13;12.43;;;1.30;99.90;;;;;;5025651;28;20223;-48
2023/01/31 07:12:43;;;;;;;16.87;11.90;;;1.30;99.90;;;;;;5014825;28;20291;-49
2023/01/31 07:15:12;;;;;;;22.07;13.97;;;1.30;99.90;;;;;;5032262;28;20219;-48
2023/01/31 07:17:39;;;;;;;19.87;13.30;;;1.40;99.90;;;;;;5028357;28;20251;-48
2023/01/31 07:20:07;;;;;;;17.57;11.87;;;1.40;99.90;;;;;;5028985;28;20201;-49
2023/01/31 07:22:34;;;;;;;21.23;14.23;;;1.50;99.90;;;;;;5023915;28;20223;-48
2023/01/31 07:25:01;;;;;;;19.20;12.00;;;1.50;99.90;;;;;;5034116;28;20220;-49
2023/01/31 07:27:28;;;;;;;15.33;11.97;;;1.50;99.90;;;;;;5022751;28;20263;-48
2023/01/31 07:29:55;;;;;;;17.47;11.93;;;1.40;99.90;;;;;;5014145;28;20362;-50
2023/01/31 07:32:29;;;;;;;15.47;11.60;;;1.40;99.90;;;;;;5014176;28;20255;-49
2023/01/31 07:34:55;;;;;;;18.53;13.00;;;1.50;99.90;;;;;;5026483;28;20283;-49
2023/01/31 07:37:26;;;;;;;15.43;10.90;;;1.50;99.90;;;;;;5033746;28;20699;-48
2023/01/31 07:39:53;;;;;;;15.37;11.40;;;1.60;99.90;;;;;;5025168;28;20268;-48
2023/01/31 07:42:22;;;;;;;14.10;11.33;;;1.60;99.90;;;;;;5031847;28;20270;-47
2023/01/31 07:44:49;;;;;;;17.07;12.30;;;1.50;99.90;;;;;;5019996;28;20298;-48
2023/01/31 07:47:16;;;;;;;15.80;11.37;;;1.40;99.90;;;;;;5018445;28;20262;-49
2023/01/31 07:49:44;;;;;;;18.17;12.13;;;1.50;99.90;;;;;;5028745;28;20266;-48
2023/01/31 07:52:11;;;;;;;14.97;10.43;;;1.40;99.90;;;;;;5029689;28;20204;-49
2023/01/31 07:54:38;;;;;;;16.27;11.17;;;1.40;99.90;;;;;;5029573;28;20604;-49
2023/01/31 07:57:05;;;;;;;14.97;11.00;;;1.40;99.90;;;;;;5030010;28;20195;-49
2023/01/31 07:59:32;;;;;;;17.93;10.63;;;1.50;99.90;;;;;;5033386;28;20196;-49
2023/01/31 08:04:45;;;;;;;21.43;15.77;;;1.70;99.90;;;;;;5033294;28;20247;-49
2023/01/31 08:07:12;;;;;;;20.97;14.50;;;1.90;99.90;;;;;;5033533;28;20585;-49
2023/01/31 08:09:42;;;;;;;18.03;13.23;;;2.00;99.90;;;;;;5031413;28;20208;-50
2023/01/31 08:12:09;;;;;;;15.87;13.40;;;2.20;99.90;;;;;;5033441;28;20279;-50
2023/01/31 08:14:36;;;;;;;15.57;11.40;;;2.40;99.90;;;;;;5033198;28;20686;-49
2023/01/31 08:17:03;;;;;;;13.37;11.20;;;2.60;99.90;;;;;;5033256;28;20259;-50
2023/01/31 08:19:30;;;;;;;19.37;13.80;;;2.80;99.90;;;;;;5021294;28;20257;-49
2023/01/31 08:21:58;;;;;;;19.20;13.57;;;3.00;99.90;;;;;;5032679;28;20224;-49
2023/01/31 08:24:25;;;;;;;14.63;12.20;;;3.20;99.90;;;;;;5029169;28;20219;-51
2023/01/31 08:26:52;;;;;;;15.70;12.40;;;3.30;99.90;;;;;;5032015;28;20253;-50
2023/01/31 08:29:19;;;;;;;15.83;12.67;;;3.40;99.90;;;;;;5032976;28;20269;-51
2023/01/31 08:31:46;;;;;;;15.77;11.97;;;3.50;99.90;;;;;;5032612;28;20321;-49
2023/01/31 08:34:13;;;;;;;14.93;12.73;;;3.50;99.90;;;;;;5032300;28;20745;-50
2023/01/31 08:36:40;;;;;;;18.60;14.67;;;3.60;99.90;;;;;;5013776;28;20208;-49
2023/01/31 08:39:08;;;;;;;22.83;14.30;;;3.70;99.90;;;;;;5032512;28;20757;-49
2023/01/31 08:41:37;;;;;;;15.23;12.23;;;3.60;99.90;;;;;;5032591;28;20223;-50
2023/01/31 08:44:04;;;;;;;23.90;17.83;;;3.50;99.90;;;;;;5032463;28;20228;-50
2023/01/31 08:46:33;;;;;;;20.23;15.60;;;3.80;99.90;;;;;;5029516;28;20335;-49
2023/01/31 08:49:01;;;;;;;21.80;16.20;;;4.30;99.90;;;;;;5024203;28;20204;-50
2023/01/31 08:51:28;;;;;;;18.00;14.53;;;4.70;99.90;;;;;;5029904;28;20204;-50
2023/01/31 08:53:55;;;;;;;20.90;14.33;;;5.10;99.90;;;;;;5012835;28;20643;-49
2023/01/31 08:56:25;;;;;;;17.73;13.30;;;5.60;99.90;;;;;;5022776;28;20195;-49
2023/01/31 08:58:53;;;;;;;19.07;14.83;;;5.90;99.90;;;;;;5032238;28;20739;-51
2023/01/31 09:01:21;;;;;;;16.37;13.60;;;6.20;99.90;;;;;;5030236;28;20234;-51
2023/01/31 09:03:49;;;;;;;13.43;11.60;;;6.30;99.90;;;;;;5032299;28;20302;-50
2023/01/31 09:06:17;;;;;;;17.90;12.23;;;6.40;99.90;;;;;;5032564;28;20238;-50
2023/01/31 09:08:45;;;;;;;14.30;10.57;;;6.50;99.90;;;;;;5027337;28;20620;-50
2023/01/31 09:11:15;;;;;;;11.00;9.90;;;6.60;99.90;;;;;;5012473;28;20256;-51
2023/01/31 09:13:44;;;;;;;12.60;9.40;;;6.90;99.90;;;;;;5012302;28;20209;-50
2023/01/31 09:16:13;;;;;;;11.90;9.33;;;7.40;99.90;;;;;;5018957;28;20227;-49
2023/01/31 09:18:41;;;;;;;16.90;9.27;;;7.70;99.90;;;;;;5029555;28;20250;-50
2023/01/31 09:21:10;;;;;;;12.87;9.83;;;7.80;99.90;;;;;;5030152;28;20254;-49
2023/01/31 09:23:38;;;;;;;10.70;8.63;;;7.90;99.90;;;;;;5031698;28;20216;-49
2023/01/31 09:26:06;;;;;;;11.30;8.67;;;7.80;99.90;;;;;;5024258;28;20204;-50
2023/01/31 09:28:33;;;;;;;9.63;8.47;;;7.70;99.90;;;;;;5024090;28;20205;-49
2023/01/31 09:31:05;;;;;;;10.37;9.27;;;7.80;99.90;;;;;;5031293;28;20197;-51
2023/01/31 09:33:33;;;;;;;8.40;7.60;;;7.80;99.90;;;;;;5030908;28;20212;-49
2023/01/31 09:36:02;;;;;;;9.63;8.23;;;7.70;99.90;;;;;;5025898;28;20625;-49
2023/01/31 09:38:28;;;;;;;8.23;7.47;;;8.00;99.90;;;;;;5031156;28;20736;-50
2023/01/31 09:40:57;;;;;;;7.73;6.97;;;8.30;99.90;;;;;;5031218;28;20730;-49
2023/01/31 09:43:28;;;;;;;10.73;7.77;;;8.50;99.90;;;;;;5020836;28;20224;-49
2023/01/31 09:45:59;;;;;;;9.90;7.60;;;8.70;99.90;;;;;;5026474;28;20568;-46
2023/01/31 09:48:33;;;;;;;10.57;8.23;;;9.00;99.90;;;;;;5025357;28;20209;-49
2023/01/31 09:51:01;;;;;;;10.97;7.50;;;9.10;99.90;;;;;;5023935;28;20242;-49
2023/01/31 09:53:33;;;;;;;8.77;7.90;;;9.30;99.90;;;;;;5031363;28;20193;-49
2023/01/31 09:56:11;;;;;;;10.90;8.37;;;9.30;99.90;;;;;;5031627;28;20257;-49
2023/01/31 09:58:47;;;;;;;9.03;6.73;;;9.30;99.90;;;;;;5027902;28;20198;-49
2023/01/31 10:01:22;;;;;;;9.33;7.23;;;9.40;99.90;;;;;;5028350;28;20636;-50
2023/01/31 10:04:18;;;;;;;9.57;6.53;;;9.30;99.90;;;;;;5031332;28;20268;-49
2023/01/31 10:06:52;;;;;;;8.03;5.97;;;8.90;99.90;;;;;;5023743;28;20216;-49
2023/01/31 10:09:25;;;;;;;7.50;5.67;;;8.20;99.90;;;;;;5024296;28;20254;-48
2023/01/31 10:11:56;;;;;;;5.53;4.50;;;7.80;99.90;;;;;;5030609;28;20225;-49
2023/01/31 10:14:33;;;;;;;15.23;6.07;;;7.30;99.90;;;;;;5032386;23;20302;-48
2023/01/31 10:17:07;;;;;;;12.30;5.70;;;7.20;99.90;;;;;;4996459;28;20209;-48
2023/01/31 10:19:43;;;;;;;10.33;5.53;;;7.10;99.90;;;;;;4999709;28;20196;-48
2023/01/31 10:22:15;;;;;;;6.33;5.23;;;7.30;99.90;;;;;;5010251;28;20240;-48
2023/01/31 10:24:47;;;;;;;9.97;6.90;;;7.70;99.90;;;;;;4981936;28;20230;-47
2023/01/31 10:27:19;;;;;;;6.63;5.23;;;7.80;99.90;;;;;;4991093;28;20193;-48
2023/01/31 10:29:52;;;;;;;8.50;4.13;;;8.00;99.90;;;;;;4989537;28;20288;-48
2023/01/31 10:32:28;;;;;;;9.20;7.27;;;8.00;99.90;;;;;;4991071;28;20217;-47
2023/01/31 10:35:02;;;;;;;10.03;4.63;;;7.80;99.90;;;;;;4991313;28;20217;-49
2023/01/31 10:37:37;;;;;;;4.80;4.30;;;8.20;99.90;;;;;;4989748;28;20205;-47
2023/01/31 10:40:13;;;;;;;5.03;3.90;;;8.50;99.90;;;;;;4981736;28;20268;-47
2023/01/31 10:42:45;;;;;;;5.17;3.30;;;8.80;99.90;;;;;;4986349;28;20260;-48
2023/01/31 10:45:17;;;;;;;3.30;3.00;;;8.90;99.90;;;;;;4995403;28;20273;-47
2023/01/31 10:47:50;;;;;;;4.23;3.37;;;8.70;99.90;;;;;;5010630;28;20205;-48
2023/01/31 10:50:26;;;;;;;2.90;2.20;;;8.90;99.90;;;;;;4989235;28;20263;-47
2023/01/31 10:53:16;;;;;;;6.90;3.67;;;8.90;99.90;;;;;;4974240;28;20320;-48
2023/01/31 10:55:54;;;;;;;3.13;2.77;;;8.20;99.90;;;;;;4989904;28;20260;-48
2023/01/31 10:58:23;;;;;;;2.60;2.50;;;7.80;99.90;;;;;;4987723;28;20567;-47
2023/01/31 11:00:50;;;;;;;2.57;2.37;;;7.50;99.90;;;;;;4989638;28;20225;-48
2023/01/31 11:03:17;;;;;;;4.73;2.17;;;7.30;99.90;;;;;;4990777;28;20699;-48
2023/01/31 11:05:50;;;;;;;2.73;1.83;;;7.20;99.90;;;;;;4991053;28;20292;-47
2023/01/31 11:08:27;;;;;;;4.23;2.17;;;7.10;99.90;;;;;;4990952;28;20213;-47
2023/01/31 11:10:56;;;;;;;2.00;1.73;;;7.30;99.90;;;;;;4990700;28;20672;-48
2023/01/31 11:13:24;;;;;;;3.30;2.07;;;7.40;99.90;;;;;;4990685;28;20565;-48
2023/01/31 11:15:53;;;;;;;1.90;1.60;;;7.30;99.90;;;;;;4988174;28;20351;-47
2023/01/31 11:18:29;;;;;;;4.30;1.63;;;7.30;99.90;;;;;;4991034;28;20201;-47
2023/01/31 11:20:59;;;;;;;2.70;1.67;;;7.20;99.90;;;;;;4991149;28;20204;-48
2023/01/31 11:23:30;;;;;;;4.83;2.37;;;7.10;99.90;;;;;;4991933;28;20226;-48
2023/01/31 11:25:58;;;;;;;6.00;2.20;;;7.20;99.90;;;;;;4994587;28;20213;-47
2023/01/31 11:28:33;;;;;;;2.73;1.53;;;7.20;99.90;;;;;;4990910;28;20260;-47
2023/01/31 11:31:01;;;;;;;2.40;2.20;;;7.30;99.90;;;;;;4986847;28;20737;-47
2023/01/31 11:33:39;;;;;;;7.73;2.73;;;7.00;99.90;;;;;;4985258;28;20281;-47
2023/01/31 11:36:11;;;;;;;3.63;2.63;;;7.00;99.90;;;;;;4986933;28;20250;-47
2023/01/31 11:38:38;;;;;;;4.00;3.70;;;6.90;99.90;;;;;;4986296;28;20201;-47
2023/01/31 11:41:27;;;;;;;3.07;2.40;;;6.90;99.90;;;;;;4987606;28;20263;-46
2023/01/31 11:44:16;;;;;;;2.90;2.70;;;6.90;99.90;;;;;;4985737;28;20294;-47
2023/01/31 11:46:52;;;;;;;7.50;5.90;;;7.10;99.90;;;;;;4980407;28;20933;-47
2023/01/31 11:49:28;;;;;;;4.77;2.77;;;7.20;99.90;;;;;;4985794;28;20196;-47
2023/01/31 11:51:58;;;;;;;2.93;2.63;;;7.40;99.90;;;;;;4987050;28;20278;-47
2023/01/31 11:54:28;;;;;;;5.50;2.47;;;7.10;99.90;;;;;;4985755;28;20256;-47
2023/01/31 11:56:56;;;;;;;2.30;2.20;;;7.00;99.90;;;;;;4983526;28;20221;-46
2023/01/31 11:59:26;;;;;;;4.53;2.27;;;6.80;99.90;;;;;;4993049;28;20290;-47
2023/01/31 12:01:56;;;;;;;4.10;2.30;;;6.80;99.90;;;;;;4992680;28;20251;-47
2023/01/31 12:04:29;;;;;;;3.20;2.40;;;6.60;99.90;;;;;;4993549;28;20654;-48
2023/01/31 12:07:04;;;;;;;2.47;2.27;;;6.70;99.90;;;;;;4980754;28;20530;-47
2023/01/31 12:09:41;;;;;;;4.60;2.73;;;6.70;99.90;;;;;;4974153;28;20268;-47
2023/01/31 12:12:32;;;;;;;3.47;2.37;;;6.80;99.90;;;;;;4974414;28;20207;-49
2023/01/31 12:15:01;;;;;;;5.87;2.37;;;6.80;99.90;;;;;;4991608;28;20208;-48
2023/01/31 12:17:31;;;;;;;4.17;2.10;;;6.90;99.90;;;;;;4995713;28;20255;-47
2023/01/31 12:20:16;;;;;;;4.47;2.47;;;7.00;99.90;;;;;;4995977;28;20264;-47
2023/01/31 12:22:54;;;;;;;8.60;5.53;;;7.00;99.90;;;;;;5000384;28;20407;-47
2023/01/31 12:25:33;;;;;;;13.33;5.87;;;6.90;99.90;;;;;;4992966;28;20203;-48
2023/01/31 12:28:12;;;;;;;9.00;7.20;;;6.70;99.90;;;;;;4988176;28;20733;-47
2023/01/31 12:31:10;;;;;;;8.40;7.50;;;6.50;99.90;;;;;;4988430;28;20272;-47
2023/01/31 12:33:51;;;;;;;11.80;8.43;;;6.40;99.90;;;;;;4987479;28;20876;-48
2023/01/31 12:36:33;;;;;;;12.37;7.63;;;6.50;99.90;;;;;;4989126;28;20273;-47
2023/01/31 12:39:16;;;;;;;11.63;7.70;;;6.40;99.90;;;;;;4989597;28;20230;-48
2023/01/31 12:41:55;;;;;;;12.07;7.83;;;6.20;99.90;;;;;;4991642;28;20668;-47
2023/01/31 12:44:42;;;;;;;15.10;9.80;;;6.20;99.90;;;;;;4986199;28;20281;-47
2023/01/31 12:47:39;;;;;;;11.93;8.93;;;6.00;99.90;;;;;;4986261;28;20206;-47
2023/01/31 12:50:28;;;;;;;13.97;8.47;;;5.80;99.90;;;;;;4984470;28;20260;-47
2023/01/31 12:53:23;;;;;;;14.67;8.60;;;5.50;99.90;;;;;;4989189;28;20250;-47
2023/01/31 12:56:06;;;;;;;15.67;9.30;;;5.50;99.90;;;;;;4987093;28;20199;-47
2023/01/31 12:58:46;;;;;;;16.73;10.10;;;5.70;99.90;;;;;;4992275;28;20634;-47
2023/01/31 13:01:17;;;;;;;11.00;8.83;;;5.80;99.90;;;;;;4992532;28;20280;-48
2023/01/31 13:04:06;;;;;;;12.47;8.37;;;5.90;99.90;;;;;;4992587;28;20230;-47
2023/01/31 13:06:37;;;;;;;16.97;9.93;;;5.90;99.90;;;;;;4992601;28;20212;-47
2023/01/31 13:09:11;;;;;;;10.43;8.97;;;5.90;99.90;;;;;;4992501;28;20209;-47
2023/01/31 13:11:43;;;;;;;13.23;10.23;;;6.00;99.90;;;;;;4990385;28;20922;-48